createdAt,value
2022-12-25T00:02:03.501Z,1.30
2022-12-25T00:06:07.609Z,1.10
2022-12-25T00:10:12.624Z,1.08
2022-12-25T00:14:15.542Z,1.20
2022-12-25T00:18:18.433Z,1.05
2022-12-25T00:22:21.440Z,0.98
2022-12-25T00:26:27.107Z,1.23
2022-12-25T00:30:30.062Z,1.05
2022-12-25T00:34:33.222Z,1.00
2022-12-25T00:38:38.161Z,0.80
2022-12-25T00:42:43.474Z,0.80
2022-12-25T00:46:46.392Z,1.15
2022-12-25T00:50:49.322Z,1.10
2022-12-25T00:54:52.230Z,1.00
2022-12-25T00:58:57.040Z,0.77
2022-12-25T01:03:00.084Z,0.98
2022-12-25T01:07:03.088Z,1.00
2022-12-25T01:11:08.743Z,1.00
2022-12-25T01:15:14.435Z,1.20
2022-12-25T01:19:17.340Z,0.93
2022-12-25T01:23:20.289Z,1.02
2022-12-25T01:27:23.567Z,0.90
2022-12-25T01:31:27.898Z,0.98
2022-12-25T01:35:31.662Z,1.02
2022-12-25T01:39:35.091Z,0.90
2022-12-25T01:43:59.399Z,1.00
2022-12-25T01:48:07.601Z,1.00
2022-12-25T01:52:17.535Z,1.00
2022-12-25T01:56:25.776Z,1.00
2022-12-25T02:00:28.951Z,1.00
2022-12-25T02:04:39.606Z,0.90
2022-12-25T02:08:42.919Z,1.10
2022-12-25T02:12:46.801Z,1.10
2022-12-25T02:16:59.029Z,1.20
2022-12-25T02:21:19.049Z,1.02
2022-12-25T02:25:37.939Z,0.95
2022-12-25T02:29:50.587Z,0.93
2022-12-25T02:34:05.816Z,0.70
2022-12-25T02:38:17.113Z,1.33
2022-12-25T02:42:48.556Z,1.15
2022-12-25T02:47:11.709Z,1.30
2022-12-25T02:51:35.050Z,0.93
2022-12-25T02:56:00.814Z,1.05
2022-12-25T03:00:23.464Z,1.00
2022-12-25T03:04:47.044Z,1.30
2022-12-25T03:08:53.320Z,1.30
2022-12-25T03:12:59.187Z,1.35
2022-12-25T03:17:02.460Z,1.40
2022-12-25T03:21:25.053Z,1.17
2022-12-25T03:25:47.487Z,2.08
2022-12-25T03:30:16.323Z,1.90
2022-12-25T03:34:50.345Z,1.80
2022-12-25T03:39:21.468Z,1.65
2022-12-25T03:43:51.233Z,1.38
2022-12-25T03:48:14.122Z,1.35
2022-12-25T03:52:37.523Z,1.60
2022-12-25T03:57:00.679Z,1.80
2022-12-25T04:01:20.993Z,1.45
2022-12-25T04:05:41.743Z,2.10
2022-12-25T04:10:02.188Z,1.63
2022-12-25T04:14:24.107Z,1.73
2022-12-25T04:18:44.141Z,1.95
2022-12-25T04:23:04.970Z,2.05
2022-12-25T04:27:25.230Z,2.10
2022-12-25T04:31:46.720Z,2.00
2022-12-25T04:36:07.678Z,2.30
2022-12-25T04:40:12.371Z,1.77
2022-12-25T04:44:15.332Z,2.35
2022-12-25T04:48:20.031Z,2.03
2022-12-25T04:52:22.948Z,2.17
2022-12-25T04:56:25.975Z,2.22
2022-12-25T05:00:28.872Z,1.70
2022-12-25T05:04:33.440Z,2.03
2022-12-25T05:08:37.067Z,2.50
2022-12-25T05:12:39.970Z,1.85
2022-12-25T05:16:42.939Z,2.30
2022-12-25T05:20:54.503Z,1.60
2022-12-25T05:24:57.459Z,2.25
2022-12-25T05:29:00.909Z,1.80
2022-12-25T05:33:04.030Z,2.17
2022-12-25T05:37:08.391Z,1.88
2022-12-25T05:41:11.462Z,2.08
2022-12-25T05:45:14.682Z,1.80
2022-12-25T05:49:17.778Z,2.25
2022-12-25T05:53:22.121Z,2.03
2022-12-25T05:57:25.066Z,2.45
2022-12-25T06:01:29.280Z,2.55
2022-12-25T06:05:32.994Z,2.40
2022-12-25T06:09:37.221Z,2.53
2022-12-25T06:13:40.456Z,2.42
2022-12-25T06:17:43.466Z,2.17
2022-12-25T06:21:46.387Z,2.42
2022-12-25T06:25:50.935Z,2.47
2022-12-25T06:29:54.214Z,2.42
2022-12-25T06:33:57.253Z,2.40
2022-12-25T06:38:00.358Z,2.60
2022-12-25T06:42:05.021Z,2.45
2022-12-25T06:46:10.778Z,2.00
2022-12-25T06:50:13.791Z,2.17
2022-12-25T06:54:16.831Z,2.60
2022-12-25T06:58:21.357Z,2.08
2022-12-25T07:02:25.654Z,2.08
2022-12-25T07:06:28.784Z,2.30
2022-12-25T07:10:31.762Z,2.25
2022-12-25T07:14:36.396Z,2.40
2022-12-25T07:18:39.419Z,2.63
2022-12-25T07:22:42.299Z,2.53
2022-12-25T07:26:45.186Z,2.58
2022-12-25T07:30:49.625Z,2.90
2022-12-25T07:34:52.577Z,2.92
2022-12-25T07:38:55.675Z,2.95
2022-12-25T07:42:58.793Z,3.15
2022-12-25T07:47:03.172Z,3.28
2022-12-25T07:51:08.625Z,2.83
2022-12-25T07:55:11.706Z,3.10
2022-12-25T07:59:15.196Z,3.08
2022-12-25T08:03:19.648Z,3.72
2022-12-25T08:07:23.078Z,3.30
2022-12-25T08:11:26.030Z,3.95
2022-12-25T08:15:29.184Z,3.53
2022-12-25T08:19:33.705Z,3.00
2022-12-25T08:23:38.789Z,3.42
2022-12-25T08:27:41.708Z,3.50
2022-12-25T08:31:46.668Z,3.53
2022-12-25T08:35:51.184Z,3.75
2022-12-25T08:39:54.093Z,3.20
2022-12-25T08:43:57.084Z,3.10
2022-12-25T08:48:00.008Z,3.45
2022-12-25T08:52:04.448Z,3.20
2022-12-25T08:56:08.075Z,3.08
2022-12-25T09:00:12.056Z,3.50
2022-12-25T09:04:15.429Z,2.92
2022-12-25T09:08:20.239Z,3.15
2022-12-25T09:12:23.177Z,3.05
2022-12-25T09:16:26.129Z,2.83
2022-12-25T09:20:29.572Z,2.80
2022-12-25T09:24:33.964Z,3.28
2022-12-25T09:28:36.958Z,3.30
2022-12-25T09:32:40.500Z,2.85
2022-12-25T09:36:43.432Z,3.17
2022-12-25T09:40:47.863Z,3.08
2022-12-25T09:44:56.299Z,2.53
2022-12-25T09:49:05.797Z,2.90
2022-12-25T09:53:14.565Z,3.05
2022-12-25T09:57:18.978Z,2.97
2022-12-25T10:01:31.012Z,3.08
2022-12-25T10:05:59.928Z,3.00
2022-12-25T10:10:17.639Z,3.20
2022-12-25T10:14:31.367Z,3.22
2022-12-25T10:18:51.889Z,2.58
2022-12-25T10:23:00.745Z,2.72
2022-12-25T10:27:09.068Z,2.40
2022-12-25T10:31:20.236Z,2.30
2022-12-25T10:35:25.301Z,2.28
2022-12-25T10:39:28.633Z,2.80
2022-12-25T10:43:43.388Z,2.67
2022-12-25T10:47:54.971Z,2.30
2022-12-25T10:52:03.901Z,2.85
2022-12-25T10:56:08.051Z,2.28
2022-12-25T11:00:21.739Z,2.35
2022-12-25T11:04:29.475Z,2.40
2022-12-25T11:08:34.824Z,1.92
2022-12-25T11:12:43.045Z,2.40
2022-12-25T11:16:46.017Z,2.53
2022-12-25T11:20:56.124Z,2.28
2022-12-25T11:25:15.903Z,2.50
2022-12-25T11:29:30.980Z,2.40
2022-12-25T11:33:42.517Z,2.40
2022-12-25T11:37:49.712Z,2.88
2022-12-25T11:41:57.628Z,3.70
2022-12-25T11:46:07.968Z,3.92
2022-12-25T11:50:20.349Z,4.35
2022-12-25T11:54:31.136Z,4.20
2022-12-25T11:58:38.910Z,4.57
2022-12-25T12:02:46.830Z,4.47
2022-12-25T12:06:55.729Z,4.32
2022-12-25T12:11:19.116Z,3.30
2022-12-25T12:15:29.817Z,2.92
2022-12-25T12:19:34.689Z,2.42
2022-12-25T12:23:49.819Z,2.65
2022-12-25T12:28:02.828Z,2.17
2022-12-25T12:32:29.099Z,2.40
2022-12-25T12:36:36.763Z,2.65
2022-12-25T12:40:43.793Z,2.35
2022-12-25T12:44:51.000Z,2.72
2022-12-25T12:48:55.827Z,2.50
2022-12-25T12:52:59.482Z,2.58
2022-12-25T12:57:04.564Z,2.83
2022-12-25T13:01:20.140Z,2.63
2022-12-25T13:05:35.584Z,2.00
2022-12-25T13:09:55.534Z,2.28
2022-12-25T13:14:02.648Z,2.47
2022-12-25T13:18:11.041Z,2.90
2022-12-25T13:22:24.364Z,3.33
2022-12-25T13:26:28.509Z,3.35
2022-12-25T13:30:31.392Z,3.80
2022-12-25T13:34:38.515Z,4.00
2022-12-25T13:38:45.636Z,3.55
2022-12-25T13:42:50.287Z,4.18
2022-12-25T13:46:53.534Z,3.80
2022-12-25T13:51:00.314Z,5.30
2022-12-25T13:55:05.118Z,4.03
2022-12-25T13:59:17.647Z,4.00
2022-12-25T14:03:25.669Z,4.13
2022-12-25T14:07:29.989Z,4.95
2022-12-25T14:11:33.722Z,4.80
2022-12-25T14:15:37.899Z,5.05
2022-12-25T14:19:41.032Z,5.05
2022-12-25T14:23:47.191Z,5.28
2022-12-25T14:27:51.784Z,5.60
2022-12-25T14:31:56.297Z,6.47
2022-12-25T14:36:00.344Z,6.10
2022-12-25T14:40:22.114Z,5.43
2022-12-25T14:44:37.393Z,5.93
2022-12-25T14:48:40.308Z,6.10
2022-12-25T14:52:45.393Z,5.90
2022-12-25T14:56:51.319Z,6.40
2022-12-25T15:00:57.281Z,5.32
2022-12-25T15:05:00.338Z,5.45
2022-12-25T15:09:06.573Z,5.70
2022-12-25T15:13:13.268Z,5.05
2022-12-25T15:17:26.328Z,5.90
2022-12-25T15:21:31.721Z,5.45
2022-12-25T15:25:34.643Z,5.60
2022-12-25T15:30:08.480Z,5.60
2022-12-25T15:34:04.552Z,5.43
2022-12-25T15:38:07.816Z,4.85
2022-12-25T15:42:13.635Z,5.53
2022-12-25T15:46:18.196Z,5.63
2022-12-25T15:50:22.056Z,5.85
2022-12-25T15:54:24.996Z,7.03
2022-12-25T15:58:27.918Z,5.40
2022-12-25T16:02:32.339Z,5.70
2022-12-25T16:06:35.594Z,5.70
2022-12-25T16:10:40.505Z,5.55
2022-12-25T16:14:44.140Z,5.80
2022-12-25T16:18:48.410Z,6.07
2022-12-25T16:22:51.635Z,6.30
2022-12-25T16:26:54.533Z,7.10
2022-12-25T16:30:57.488Z,8.70
2022-12-25T16:35:02.051Z,7.70
2022-12-25T16:39:05.589Z,7.22
2022-12-25T16:43:08.632Z,6.28
2022-12-25T16:47:11.551Z,6.45
2022-12-25T16:51:17.993Z,6.13
2022-12-25T16:55:25.008Z,6.88
2022-12-25T16:59:31.169Z,8.73
2022-12-25T17:03:34.181Z,5.93
2022-12-25T17:07:39.081Z,5.30
2022-12-25T17:11:43.280Z,4.78
2022-12-25T17:15:50.396Z,5.55
2022-12-25T17:19:53.733Z,5.93
2022-12-25T17:24:03.459Z,5.55
2022-12-25T17:28:06.836Z,5.95
2022-12-25T17:32:10.306Z,5.78
2022-12-25T17:36:15.573Z,5.47
2022-12-25T17:40:20.140Z,5.63
2022-12-25T17:44:23.413Z,6.45
2022-12-25T17:48:26.536Z,6.65
2022-12-25T17:52:29.824Z,6.05
2022-12-25T17:56:34.427Z,6.55
2022-12-25T18:00:38.080Z,7.57
2022-12-25T18:04:41.170Z,7.18
2022-12-25T18:08:45.449Z,6.88
2022-12-25T18:12:50.010Z,8.90
2022-12-25T18:16:53.431Z,10.45
2022-12-25T18:20:56.382Z,8.40
2022-12-25T18:24:59.395Z,8.57
2022-12-25T18:29:04.723Z,8.43
2022-12-25T18:33:08.113Z,8.07
2022-12-25T18:37:11.270Z,9.77
2022-12-25T18:41:14.282Z,9.52
2022-12-25T18:45:20.663Z,9.68
2022-12-25T18:49:23.544Z,9.73
2022-12-25T18:53:27.640Z,10.02
2022-12-25T18:57:32.666Z,13.85
2022-12-25T19:01:38.429Z,12.63
2022-12-25T19:05:41.994Z,10.63
2022-12-25T19:09:44.977Z,11.55
2022-12-25T19:13:48.485Z,10.02
2022-12-25T19:17:53.889Z,9.02
2022-12-25T19:21:58.333Z,10.60
2022-12-25T19:26:01.314Z,11.15
2022-12-25T19:30:05.559Z,13.00
2022-12-25T19:34:10.485Z,12.23
2022-12-25T19:38:13.510Z,11.52
2022-12-25T19:42:18.883Z,11.80
2022-12-25T19:46:23.939Z,12.30
2022-12-25T19:50:32.498Z,13.27
2022-12-25T19:54:35.547Z,11.85
2022-12-25T19:58:38.704Z,12.45
2022-12-25T20:02:42.104Z,12.88
2022-12-25T20:06:47.099Z,12.05
2022-12-25T20:10:51.793Z,12.60
2022-12-25T20:14:54.737Z,11.13
2022-12-25T20:18:58.762Z,10.70
2022-12-25T20:23:03.177Z,11.95
2022-12-25T20:27:06.304Z,10.88
2022-12-25T20:31:14.041Z,11.07
2022-12-25T20:35:17.335Z,10.98
2022-12-25T20:39:21.674Z,11.73
2022-12-25T20:43:24.889Z,10.35
2022-12-25T20:47:27.864Z,10.60
2022-12-25T20:51:31.148Z,10.18
2022-12-25T20:55:35.576Z,10.57
2022-12-25T20:59:38.643Z,10.65
2022-12-25T21:03:42.432Z,10.27
2022-12-25T21:07:45.496Z,10.65
2022-12-25T21:11:50.019Z,8.93
2022-12-25T21:15:54.013Z,10.40
2022-12-25T21:19:56.921Z,10.73
2022-12-25T21:23:59.820Z,8.88
2022-12-25T21:28:05.922Z,8.63
2022-12-25T21:32:27.666Z,9.02
2022-12-25T21:36:32.792Z,9.00
2022-12-25T21:40:38.779Z,9.27
2022-12-25T21:44:43.412Z,9.20
2022-12-25T21:48:47.063Z,9.25
2022-12-25T21:52:49.008Z,9.13
2022-12-25T21:56:53.225Z,7.82
2022-12-25T22:00:57.524Z,7.80
2022-12-25T22:05:00.469Z,7.43
2022-12-25T22:09:05.939Z,9.90
2022-12-25T22:13:27.728Z,8.98
2022-12-25T22:17:51.064Z,8.43
2022-12-25T22:21:54.291Z,9.15
2022-12-25T22:25:57.312Z,8.57
2022-12-25T22:30:00.449Z,7.15
2022-12-25T22:34:04.740Z,7.90
2022-12-25T22:38:08.136Z,8.05
2022-12-25T22:42:12.297Z,12.60
2022-12-25T22:46:15.307Z,8.98
2022-12-25T22:50:20.250Z,8.88
2022-12-25T22:54:24.289Z,10.30
2022-12-25T22:58:27.260Z,8.23
2022-12-25T23:02:30.580Z,8.98
2022-12-25T23:06:35.709Z,9.38
2022-12-25T23:10:38.959Z,9.07
2022-12-25T23:14:42.008Z,8.82
2022-12-25T23:19:02.693Z,9.18
2022-12-25T23:23:24.995Z,9.27
2022-12-25T23:27:28.461Z,8.30
2022-12-25T23:31:34.487Z,10.02
2022-12-25T23:35:37.501Z,9.77
2022-12-25T23:39:42.410Z,10.27
2022-12-25T23:43:45.296Z,8.57
2022-12-25T23:47:48.452Z,8.88
2022-12-25T23:51:51.609Z,8.48
2022-12-25T23:55:57.592Z,8.93
